sensor_id;sensor_type;location;lat;lon;timestamp;temperature;humidity
15450;DHT22;7826;49.784;9.934;2022-09-23T00:01:06;6.40;39.40
15450;DHT22;7826;49.784;9.934;2022-09-23T00:03:34;6.40;1.00
15450;DHT22;7826;49.784;9.934;2022-09-23T00:06:13;6.30;1.00
15450;DHT22;7826;49.784;9.934;2022-09-23T00:08:40;6.30;1.00
15450;DHT22;7826;49.784;9.934;2022-09-23T00:11:12;6.30;1.00
15450;DHT22;7826;49.784;9.934;2022-09-23T00:13:41;6.30;99.90
15450;DHT22;7826;49.784;9.934;2022-09-23T00:16:13;6.30;1.00
15450;DHT22;7826;49.784;9.934;2022-09-23T00:18:41;6.30;1.00
15450;DHT22;7826;49.784;9.934;2022-09-23T00:21:12;6.30;1.00
15450;DHT22;7826;49.784;9.934;2022-09-23T00:23:40;6.30;1.00
15450;DHT22;7826;49.784;9.934;2022-09-23T00:26:10;6.30;99.90
15450;DHT22;7826;49.784;9.934;2022-09-23T00:28:37;6.20;1.00
15450;DHT22;7826;49.784;9.934;2022-09-23T00:31:05;6.20;99.90
15450;DHT22;7826;49.784;9.934;2022-09-23T00:33:31;6.20;99.90
15450;DHT22;7826;49.784;9.934;2022-09-23T00:36:05;6.20;1.00
15450;DHT22;7826;49.784;9.934;2022-09-23T00:38:32;6.10;1.00
15450;DHT22;7826;49.784;9.934;2022-09-23T00:40:59;6.10;1.00
15450;DHT22;7826;49.784;9.934;2022-09-23T00:43:52;6.10;99.90
15450;DHT22;7826;49.784;9.934;2022-09-23T00:46:36;6.10;1.00
15450;DHT22;7826;49.784;9.934;2022-09-23T00:49:10;6.10;1.00
15450;DHT22;7826;49.784;9.934;2022-09-23T00:51:46;6.10;99.90
15450;DHT22;7826;49.784;9.934;2022-09-23T00:54:14;6.10;99.90
15450;DHT22;7826;49.784;9.934;2022-09-23T00:56:41;6.10;99.90
15450;DHT22;7826;49.784;9.934;2022-09-23T00:59:08;6.10;99.90
15450;DHT22;7826;49.784;9.934;2022-09-23T01:01:36;6.00;99.90
15450;DHT22;7826;49.784;9.934;2022-09-23T01:04:03;6.00;1.00
15450;DHT22;7826;49.784;9.934;2022-09-23T01:06:31;6.00;1.00
15450;DHT22;7826;49.784;9.934;2022-09-23T01:08:58;6.00;1.00
15450;DHT22;7826;49.784;9.934;2022-09-23T01:16:42;6.00;1.00
15450;DHT22;7826;49.784;9.934;2022-09-23T01:25:59;5.90;1.00
15450;DHT22;7826;49.784;9.934;2022-09-23T01:28:36;5.90;99.90
15450;DHT22;7826;49.784;9.934;2022-09-23T01:34:20;5.80;99.90
15450;DHT22;7826;49.784;9.934;2022-09-23T01:39:39;5.80;1.00
15450;DHT22;7826;49.784;9.934;2022-09-23T01:42:27;5.70;1.00
15450;DHT22;7826;49.784;9.934;2022-09-23T01:45:04;5.70;4.10
15450;DHT22;7826;49.784;9.934;2022-09-23T01:47:36;5.70;1.00
15450;DHT22;7826;49.784;9.934;2022-09-23T01:50:08;5.70;99.90
15450;DHT22;7826;49.784;9.934;2022-09-23T01:53:00;5.70;99.90
15450;DHT22;7826;49.784;9.934;2022-09-23T01:55:31;5.70;99.90
15450;DHT22;7826;49.784;9.934;2022-09-23T01:58:13;5.60;91.80
15450;DHT22;7826;49.784;9.934;2022-09-23T02:00:48;5.60;1.00
15450;DHT22;7826;49.784;9.934;2022-09-23T02:03:22;5.50;1.00
15450;DHT22;7826;49.784;9.934;2022-09-23T02:06:00;5.50;1.00
15450;DHT22;7826;49.784;9.934;2022-09-23T02:09:13;5.50;99.90
15450;DHT22;7826;49.784;9.934;2022-09-23T02:11:14;5.50;23.20
15450;DHT22;7826;49.784;9.934;2022-09-23T02:14:04;5.40;99.90
15450;DHT22;7826;49.784;9.934;2022-09-23T02:16:40;5.40;1.00
15450;DHT22;7826;49.784;9.934;2022-09-23T02:21:47;5.40;1.00
15450;DHT22;7826;49.784;9.934;2022-09-23T02:24:21;5.40;1.00
15450;DHT22;7826;49.784;9.934;2022-09-23T02:26:53;5.40;85.40
15450;DHT22;7826;49.784;9.934;2022-09-23T02:29:28;5.40;1.00
15450;DHT22;7826;49.784;9.934;2022-09-23T02:45:26;5.40;1.00
15450;DHT22;7826;49.784;9.934;2022-09-23T02:47:57;5.40;1.00
15450;DHT22;7826;49.784;9.934;2022-09-23T02:50:27;5.40;1.00
15450;DHT22;7826;49.784;9.934;2022-09-23T02:52:57;5.30;1.00
15450;DHT22;7826;49.784;9.934;2022-09-23T02:55:29;5.30;99.90
15450;DHT22;7826;49.784;9.934;2022-09-23T02:58:01;5.40;99.90
15450;DHT22;7826;49.784;9.934;2022-09-23T03:03:43;5.20;99.90
15450;DHT22;7826;49.784;9.934;2022-09-23T03:06:26;5.20;99.90
15450;DHT22;7826;49.784;9.934;2022-09-23T03:09:05;5.10;99.90
15450;DHT22;7826;49.784;9.934;2022-09-23T03:11:36;5.10;99.90
15450;DHT22;7826;49.784;9.934;2022-09-23T03:19:35;5.10;79.10
15450;DHT22;7826;49.784;9.934;2022-09-23T03:22:18;5.00;1.00
15450;DHT22;7826;49.784;9.934;2022-09-23T03:24:48;5.10;99.90
15450;DHT22;7826;49.784;9.934;2022-09-23T03:27:19;5.10;99.90
15450;DHT22;7826;49.784;9.934;2022-09-23T03:29:48;5.00;99.90
15450;DHT22;7826;49.784;9.934;2022-09-23T03:32:18;5.00;99.90
15450;DHT22;7826;49.784;9.934;2022-09-23T03:34:48;5.00;99.90
15450;DHT22;7826;49.784;9.934;2022-09-23T03:37:17;5.00;1.00
15450;DHT22;7826;49.784;9.934;2022-09-23T03:40:07;5.00;1.00
15450;DHT22;7826;49.784;9.934;2022-09-23T03:42:36;5.00;99.90
15450;DHT22;7826;49.784;9.934;2022-09-23T03:45:08;4.90;99.90
15450;DHT22;7826;49.784;9.934;2022-09-23T03:47:38;4.90;99.90
15450;DHT22;7826;49.784;9.934;2022-09-23T03:50:05;4.90;99.90
15450;DHT22;7826;49.784;9.934;2022-09-23T03:52:31;4.90;99.90
15450;DHT22;7826;49.784;9.934;2022-09-23T03:54:58;4.80;99.90
15450;DHT22;7826;49.784;9.934;2022-09-23T03:57:24;4.80;15.70
15450;DHT22;7826;49.784;9.934;2022-09-23T03:59:51;4.70;1.00
15450;DHT22;7826;49.784;9.934;2022-09-23T04:02:18;4.70;1.00
15450;DHT22;7826;49.784;9.934;2022-09-23T04:04:45;4.70;1.00
15450;DHT22;7826;49.784;9.934;2022-09-23T04:07:12;4.70;42.80
15450;DHT22;7826;49.784;9.934;2022-09-23T04:09:38;4.60;99.90
15450;DHT22;7826;49.784;9.934;2022-09-23T04:12:06;4.60;99.90
15450;DHT22;7826;49.784;9.934;2022-09-23T04:14:32;4.60;99.90
15450;DHT22;7826;49.784;9.934;2022-09-23T04:16:59;4.60;1.00
15450;DHT22;7826;49.784;9.934;2022-09-23T04:19:25;4.70;1.00
15450;DHT22;7826;49.784;9.934;2022-09-23T04:21:52;4.70;1.00
15450;DHT22;7826;49.784;9.934;2022-09-23T04:24:18;4.70;1.00
15450;DHT22;7826;49.784;9.934;2022-09-23T04:26:44;4.70;1.00
15450;DHT22;7826;49.784;9.934;2022-09-23T04:29:10;4.60;1.00
15450;DHT22;7826;49.784;9.934;2022-09-23T04:31:37;4.60;1.00
15450;DHT22;7826;49.784;9.934;2022-09-23T04:34:03;4.50;1.00
15450;DHT22;7826;49.784;9.934;2022-09-23T04:36:30;4.50;1.00
15450;DHT22;7826;49.784;9.934;2022-09-23T04:38:56;4.50;1.00
15450;DHT22;7826;49.784;9.934;2022-09-23T04:41:22;4.50;1.00
15450;DHT22;7826;49.784;9.934;2022-09-23T04:43:49;4.50;1.00
15450;DHT22;7826;49.784;9.934;2022-09-23T04:46:16;4.50;1.00
15450;DHT22;7826;49.784;9.934;2022-09-23T04:48:43;4.50;1.00
15450;DHT22;7826;49.784;9.934;2022-09-23T04:51:14;4.50;20.80
15450;DHT22;7826;49.784;9.934;2022-09-23T04:53:43;4.50;1.00
15450;DHT22;7826;49.784;9.934;2022-09-23T04:56:12;4.50;1.00
15450;DHT22;7826;49.784;9.934;2022-09-23T04:58:39;4.50;35.70
15450;DHT22;7826;49.784;9.934;2022-09-23T05:01:20;4.50;97.70
15450;DHT22;7826;49.784;9.934;2022-09-23T05:03:51;4.50;83.80
15450;DHT22;7826;49.784;9.934;2022-09-23T05:06:19;4.50;99.90
15450;DHT22;7826;49.784;9.934;2022-09-23T05:08:53;4.50;99.90
15450;DHT22;7826;49.784;9.934;2022-09-23T05:11:20;4.50;99.90
15450;DHT22;7826;49.784;9.934;2022-09-23T05:13:47;4.60;99.90
15450;DHT22;7826;49.784;9.934;2022-09-23T05:16:15;4.60;99.90
15450;DHT22;7826;49.784;9.934;2022-09-23T05:18:42;4.60;99.90
15450;DHT22;7826;49.784;9.934;2022-09-23T05:21:13;4.70;99.90
15450;DHT22;7826;49.784;9.934;2022-09-23T05:23:41;4.60;99.90
15450;DHT22;7826;49.784;9.934;2022-09-23T05:26:12;4.70;99.90
15450;DHT22;7826;49.784;9.934;2022-09-23T05:28:39;4.70;99.90
15450;DHT22;7826;49.784;9.934;2022-09-23T05:31:20;4.80;74.80
15450;DHT22;7826;49.784;9.934;2022-09-23T05:33:49;5.00;99.90
15450;DHT22;7826;49.784;9.934;2022-09-23T05:36:20;5.10;99.90
15450;DHT22;7826;49.784;9.934;2022-09-23T05:38:48;5.30;99.90
15450;DHT22;7826;49.784;9.934;2022-09-23T05:41:16;5.50;54.60
15450;DHT22;7826;49.784;9.934;2022-09-23T05:43:43;5.60;1.00
15450;DHT22;7826;49.784;9.934;2022-09-23T05:46:15;5.80;1.00
15450;DHT22;7826;49.784;9.934;2022-09-23T05:48:42;6.00;1.00
15450;DHT22;7826;49.784;9.934;2022-09-23T05:53:42;6.30;99.90
15450;DHT22;7826;49.784;9.934;2022-09-23T05:56:12;6.40;99.90
15450;DHT22;7826;49.784;9.934;2022-09-23T05:58:38;6.60;99.90
15450;DHT22;7826;49.784;9.934;2022-09-23T06:01:13;6.70;24.50
15450;DHT22;7826;49.784;9.934;2022-09-23T06:03:40;6.80;1.00
15450;DHT22;7826;49.784;9.934;2022-09-23T06:06:11;7.00;1.00
15450;DHT22;7826;49.784;9.934;2022-09-23T06:08:40;7.30;1.00
15450;DHT22;7826;49.784;9.934;2022-09-23T06:11:07;7.40;99.90
15450;DHT22;7826;49.784;9.934;2022-09-23T06:13:34;7.50;99.90
15450;DHT22;7826;49.784;9.934;2022-09-23T06:16:09;7.80;1.00
15450;DHT22;7826;49.784;9.934;2022-09-23T06:18:43;7.90;1.00
15450;DHT22;7826;49.784;9.934;2022-09-23T06:21:15;8.00;1.00
15450;DHT22;7826;49.784;9.934;2022-09-23T06:23:42;8.10;1.00
15450;DHT22;7826;49.784;9.934;2022-09-23T06:26:12;8.20;99.90
15450;DHT22;7826;49.784;9.934;2022-09-23T06:28:40;8.20;99.90
15450;DHT22;7826;49.784;9.934;2022-09-23T06:31:13;8.30;99.90
15450;DHT22;7826;49.784;9.934;2022-09-23T06:33:41;8.40;66.30
15450;DHT22;7826;49.784;9.934;2022-09-23T06:36:08;8.50;14.30
15450;DHT22;7826;49.784;9.934;2022-09-23T06:38:41;8.70;84.60
15450;DHT22;7826;49.784;9.934;2022-09-23T06:41:10;8.90;1.00
15450;DHT22;7826;49.784;9.934;2022-09-23T06:43:37;9.00;99.90
15450;DHT22;7826;49.784;9.934;2022-09-23T06:46:05;9.00;1.00
15450;DHT22;7826;49.784;9.934;2022-09-23T06:48:32;8.90;1.00
15450;DHT22;7826;49.784;9.934;2022-09-23T06:51:03;8.80;1.00
15450;DHT22;7826;49.784;9.934;2022-09-23T06:53:32;8.80;1.00
15450;DHT22;7826;49.784;9.934;2022-09-23T06:56:01;8.90;22.30
15450;DHT22;7826;49.784;9.934;2022-09-23T06:58:29;9.00;1.00
15450;DHT22;7826;49.784;9.934;2022-09-23T07:01:01;9.00;1.00
15450;DHT22;7826;49.784;9.934;2022-09-23T07:03:28;9.10;1.00
15450;DHT22;7826;49.784;9.934;2022-09-23T07:05:55;9.00;1.00
15450;DHT22;7826;49.784;9.934;2022-09-23T07:08:22;9.20;1.00
15450;DHT22;7826;49.784;9.934;2022-09-23T07:10:53;9.20;1.00
15450;DHT22;7826;49.784;9.934;2022-09-23T07:13:19;9.20;1.00
15450;DHT22;7826;49.784;9.934;2022-09-23T07:15:53;9.30;1.00
15450;DHT22;7826;49.784;9.934;2022-09-23T07:18:21;9.50;1.00
15450;DHT22;7826;49.784;9.934;2022-09-23T07:20:51;9.60;1.00
15450;DHT22;7826;49.784;9.934;2022-09-23T07:23:18;9.70;1.00
15450;DHT22;7826;49.784;9.934;2022-09-23T07:25:45;9.90;1.00
15450;DHT22;7826;49.784;9.934;2022-09-23T07:28:12;10.00;99.90
15450;DHT22;7826;49.784;9.934;2022-09-23T07:30:39;10.30;99.90
15450;DHT22;7826;49.784;9.934;2022-09-23T07:33:06;10.80;99.90
15450;DHT22;7826;49.784;9.934;2022-09-23T07:35:33;11.00;99.90
15450;DHT22;7826;49.784;9.934;2022-09-23T07:37:59;11.20;99.90
15450;DHT22;7826;49.784;9.934;2022-09-23T07:40:26;11.60;99.90
15450;DHT22;7826;49.784;9.934;2022-09-23T07:42:52;11.80;99.90
15450;DHT22;7826;49.784;9.934;2022-09-23T07:45:20;12.30;99.90
15450;DHT22;7826;49.784;9.934;2022-09-23T07:47:47;12.40;99.90
15450;DHT22;7826;49.784;9.934;2022-09-23T07:50:15;12.40;99.90
15450;DHT22;7826;49.784;9.934;2022-09-23T07:52:41;12.80;99.90
15450;DHT22;7826;49.784;9.934;2022-09-23T07:55:08;13.20;99.90
15450;DHT22;7826;49.784;9.934;2022-09-23T07:57:34;13.40;99.90
15450;DHT22;7826;49.784;9.934;2022-09-23T08:00:01;13.90;99.90
15450;DHT22;7826;49.784;9.934;2022-09-23T08:02:28;14.60;99.90
15450;DHT22;7826;49.784;9.934;2022-09-23T08:04:54;15.20;99.90
15450;DHT22;7826;49.784;9.934;2022-09-23T08:07:20;15.20;99.90
15450;DHT22;7826;49.784;9.934;2022-09-23T08:09:47;15.20;99.90
15450;DHT22;7826;49.784;9.934;2022-09-23T08:12:16;15.30;99.90
15450;DHT22;7826;49.784;9.934;2022-09-23T08:14:43;15.20;92.20
15450;DHT22;7826;49.784;9.934;2022-09-23T08:17:11;15.30;84.60
15450;DHT22;7826;49.784;9.934;2022-09-23T08:19:37;15.30;70.10
15450;DHT22;7826;49.784;9.934;2022-09-23T08:22:04;15.50;83.30
15450;DHT22;7826;49.784;9.934;2022-09-23T08:24:30;15.80;91.00
15450;DHT22;7826;49.784;9.934;2022-09-23T08:26:57;16.00;67.00
15450;DHT22;7826;49.784;9.934;2022-09-23T08:29:24;16.40;67.40
15450;DHT22;7826;49.784;9.934;2022-09-23T08:31:51;16.60;77.80
15450;DHT22;7826;49.784;9.934;2022-09-23T08:34:19;16.70;89.80
15450;DHT22;7826;49.784;9.934;2022-09-23T08:36:46;16.70;97.30
15450;DHT22;7826;49.784;9.934;2022-09-23T08:39:15;16.60;94.50
15450;DHT22;7826;49.784;9.934;2022-09-23T08:44:46;16.50;44.40
15450;DHT22;7826;49.784;9.934;2022-09-23T08:47:17;16.40;44.70
15450;DHT22;7826;49.784;9.934;2022-09-23T08:52:35;16.40;41.50
15450;DHT22;7826;49.784;9.934;2022-09-23T08:55:08;16.50;46.80
15450;DHT22;7826;49.784;9.934;2022-09-23T09:00:32;16.60;49.60
15450;DHT22;7826;49.784;9.934;2022-09-23T09:03:00;16.60;46.20
15450;DHT22;7826;49.784;9.934;2022-09-23T09:05:27;16.60;41.30
15450;DHT22;7826;49.784;9.934;2022-09-23T09:07:57;16.70;48.00
15450;DHT22;7826;49.784;9.934;2022-09-23T09:10:34;16.80;49.40
15450;DHT22;7826;49.784;9.934;2022-09-23T09:13:05;16.90;35.90
15450;DHT22;7826;49.784;9.934;2022-09-23T09:15:40;17.10;43.80
15450;DHT22;7826;49.784;9.934;2022-09-23T09:18:17;17.50;51.20
15450;DHT22;7826;49.784;9.934;2022-09-23T09:21:07;17.80;27.20
15450;DHT22;7826;49.784;9.934;2022-09-23T09:23:56;18.10;24.10
15450;DHT22;7826;49.784;9.934;2022-09-23T09:26:26;18.20;14.50
15450;DHT22;7826;49.784;9.934;2022-09-23T09:31:46;18.50;1.00
15450;DHT22;7826;49.784;9.934;2022-09-23T09:37:42;18.40;1.00
15450;DHT22;7826;49.784;9.934;2022-09-23T09:40:13;18.00;1.00
15450;DHT22;7826;49.784;9.934;2022-09-23T09:42:45;17.90;1.00
15450;DHT22;7826;49.784;9.934;2022-09-23T09:45:41;18.00;1.00
15450;DHT22;7826;49.784;9.934;2022-09-23T09:51:20;17.70;1.00
15450;DHT22;7826;49.784;9.934;2022-09-23T09:53:48;17.50;1.00
15450;DHT22;7826;49.784;9.934;2022-09-23T09:56:20;17.40;1.00
15450;DHT22;7826;49.784;9.934;2022-09-23T09:58:54;17.30;1.00
15450;DHT22;7826;49.784;9.934;2022-09-23T10:01:24;17.30;18.40
15450;DHT22;7826;49.784;9.934;2022-09-23T10:03:53;17.40;7.20
15450;DHT22;7826;49.784;9.934;2022-09-23T10:06:23;17.40;1.00
15450;DHT22;7826;49.784;9.934;2022-09-23T10:09:10;17.40;1.00
15450;DHT22;7826;49.784;9.934;2022-09-23T10:11:38;17.40;1.00
15450;DHT22;7826;49.784;9.934;2022-09-23T10:14:15;17.50;1.00
15450;DHT22;7826;49.784;9.934;2022-09-23T10:16:45;17.50;1.00
15450;DHT22;7826;49.784;9.934;2022-09-23T10:19:34;17.50;1.00
15450;DHT22;7826;49.784;9.934;2022-09-23T10:22:03;17.30;1.00
15450;DHT22;7826;49.784;9.934;2022-09-23T10:24:37;17.10;1.00
15450;DHT22;7826;49.784;9.934;2022-09-23T10:27:09;17.00;19.20
15450;DHT22;7826;49.784;9.934;2022-09-23T10:29:49;17.00;1.00
15450;DHT22;7826;49.784;9.934;2022-09-23T10:37:35;16.80;15.00
15450;DHT22;7826;49.784;9.934;2022-09-23T10:40:33;16.70;1.00
15450;DHT22;7826;49.784;9.934;2022-09-23T10:46:41;16.50;13.90
15450;DHT22;7826;49.784;9.934;2022-09-23T10:49:51;16.60;13.30
15450;DHT22;7826;49.784;9.934;2022-09-23T10:55:38;16.60;13.90
15450;DHT22;7826;49.784;9.934;2022-09-23T10:58:22;16.70;1.00
15450;DHT22;7826;49.784;9.934;2022-09-23T11:03:44;16.70;13.30
15450;DHT22;7826;49.784;9.934;2022-09-23T11:06:28;16.60;9.60
15450;DHT22;7826;49.784;9.934;2022-09-23T11:20:01;16.80;9.80
15450;DHT22;7826;49.784;9.934;2022-09-23T11:25:23;17.00;1.00
15450;DHT22;7826;49.784;9.934;2022-09-23T11:30:31;17.30;1.00
15450;DHT22;7826;49.784;9.934;2022-09-23T11:35:46;17.40;8.50
15450;DHT22;7826;49.784;9.934;2022-09-23T11:38:34;17.30;1.00
15450;DHT22;7826;49.784;9.934;2022-09-23T11:41:41;17.50;13.50
15450;DHT22;7826;49.784;9.934;2022-09-23T11:49:09;17.70;1.00
15450;DHT22;7826;49.784;9.934;2022-09-23T11:57:51;17.80;5.90
15450;DHT22;7826;49.784;9.934;2022-09-23T12:00:23;17.80;3.20
15450;DHT22;7826;49.784;9.934;2022-09-23T12:03:17;17.90;1.00
15450;DHT22;7826;49.784;9.934;2022-09-23T12:05:51;17.90;1.00
15450;DHT22;7826;49.784;9.934;2022-09-23T12:08:27;18.00;1.50
15450;DHT22;7826;49.784;9.934;2022-09-23T12:11:34;18.00;2.70
15450;DHT22;7826;49.784;9.934;2022-09-23T12:14:18;17.90;3.10
15450;DHT22;7826;49.784;9.934;2022-09-23T12:28:04;18.30;1.00
15450;DHT22;7826;49.784;9.934;2022-09-23T12:30:33;18.40;1.00
15450;DHT22;7826;49.784;9.934;2022-09-23T12:33:30;18.40;1.00
15450;DHT22;7826;49.784;9.934;2022-09-23T12:36:07;18.40;1.00
15450;DHT22;7826;49.784;9.934;2022-09-23T12:41:39;18.30;1.00
15450;DHT22;7826;49.784;9.934;2022-09-23T12:46:40;18.30;1.00
15450;DHT22;7826;49.784;9.934;2022-09-23T12:54:46;18.30;1.00
15450;DHT22;7826;49.784;9.934;2022-09-23T13:02:42;18.60;1.00
15450;DHT22;7826;49.784;9.934;2022-09-23T13:05:57;18.70;1.00
15450;DHT22;7826;49.784;9.934;2022-09-23T13:08:42;18.60;1.00
15450;DHT22;7826;49.784;9.934;2022-09-23T13:11:18;18.60;1.00
15450;DHT22;7826;49.784;9.934;2022-09-23T13:13:47;18.60;1.00
15450;DHT22;7826;49.784;9.934;2022-09-23T13:27:50;18.60;1.00
15450;DHT22;7826;49.784;9.934;2022-09-23T13:32:35;18.70;1.00
15450;DHT22;7826;49.784;9.934;2022-09-23T13:35:15;18.80;1.00
15450;DHT22;7826;49.784;9.934;2022-09-23T13:37:48;18.80;1.00
15450;DHT22;7826;49.784;9.934;2022-09-23T13:42:56;18.70;1.00
15450;DHT22;7826;49.784;9.934;2022-09-23T13:45:25;18.70;1.00
15450;DHT22;7826;49.784;9.934;2022-09-23T13:47:54;18.70;1.00
15450;DHT22;7826;49.784;9.934;2022-09-23T13:50:24;18.70;1.00
15450;DHT22;7826;49.784;9.934;2022-09-23T13:52:53;18.80;1.00
15450;DHT22;7826;49.784;9.934;2022-09-23T13:55:35;18.80;1.00
15450;DHT22;7826;49.784;9.934;2022-09-23T13:58:21;18.80;1.00
15450;DHT22;7826;49.784;9.934;2022-09-23T14:00:50;18.80;1.00
15450;DHT22;7826;49.784;9.934;2022-09-23T14:03:19;18.70;1.00
15450;DHT22;7826;49.784;9.934;2022-09-23T14:05:48;18.80;1.00
15450;DHT22;7826;49.784;9.934;2022-09-23T14:08:16;18.80;1.00
15450;DHT22;7826;49.784;9.934;2022-09-23T14:10:46;18.80;1.00
15450;DHT22;7826;49.784;9.934;2022-09-23T14:13:15;18.80;1.00
15450;DHT22;7826;49.784;9.934;2022-09-23T14:15:43;18.90;1.00
15450;DHT22;7826;49.784;9.934;2022-09-23T14:18:18;18.90;1.00
15450;DHT22;7826;49.784;9.934;2022-09-23T14:20:50;19.00;1.00
15450;DHT22;7826;49.784;9.934;2022-09-23T14:23:16;19.00;1.00
15450;DHT22;7826;49.784;9.934;2022-09-23T14:25:44;19.00;1.00
15450;DHT22;7826;49.784;9.934;2022-09-23T14:28:16;19.00;1.00
15450;DHT22;7826;49.784;9.934;2022-09-23T14:30:45;18.90;1.00
15450;DHT22;7826;49.784;9.934;2022-09-23T14:33:25;18.90;1.00
15450;DHT22;7826;49.784;9.934;2022-09-23T14:35:53;18.90;1.00
15450;DHT22;7826;49.784;9.934;2022-09-23T14:38:30;18.80;1.00
15450;DHT22;7826;49.784;9.934;2022-09-23T14:41:24;18.80;1.00
15450;DHT22;7826;49.784;9.934;2022-09-23T14:43:58;18.80;1.00
15450;DHT22;7826;49.784;9.934;2022-09-23T14:46:33;18.80;1.00
15450;DHT22;7826;49.784;9.934;2022-09-23T14:51:51;18.80;1.00
15450;DHT22;7826;49.784;9.934;2022-09-23T14:59:53;18.80;1.00
15450;DHT22;7826;49.784;9.934;2022-09-23T15:02:35;18.80;1.00
15450;DHT22;7826;49.784;9.934;2022-09-23T15:07:48;18.80;1.00
15450;DHT22;7826;49.784;9.934;2022-09-23T15:10:27;18.80;1.00
15450;DHT22;7826;49.784;9.934;2022-09-23T15:13:06;18.70;1.00
15450;DHT22;7826;49.784;9.934;2022-09-23T15:15:34;18.70;1.00
15450;DHT22;7826;49.784;9.934;2022-09-23T15:18:22;18.60;1.00
15450;DHT22;7826;49.784;9.934;2022-09-23T15:20:51;18.60;1.00
15450;DHT22;7826;49.784;9.934;2022-09-23T15:23:35;18.60;1.00
15450;DHT22;7826;49.784;9.934;2022-09-23T15:26:14;18.60;1.00
15450;DHT22;7826;49.784;9.934;2022-09-23T15:28:41;18.70;1.00
15450;DHT22;7826;49.784;9.934;2022-09-23T15:31:12;18.80;1.00
15450;DHT22;7826;49.784;9.934;2022-09-23T15:33:40;18.80;1.00
15450;DHT22;7826;49.784;9.934;2022-09-23T15:36:17;18.80;1.00
15450;DHT22;7826;49.784;9.934;2022-09-23T15:38:45;18.70;1.00
15450;DHT22;7826;49.784;9.934;2022-09-23T15:41:12;18.60;1.00
15450;DHT22;7826;49.784;9.934;2022-09-23T15:43:45;18.60;1.00
15450;DHT22;7826;49.784;9.934;2022-09-23T15:46:15;18.50;1.00
15450;DHT22;7826;49.784;9.934;2022-09-23T15:49:03;18.40;1.00
15450;DHT22;7826;49.784;9.934;2022-09-23T15:51:30;18.40;1.00
15450;DHT22;7826;49.784;9.934;2022-09-23T15:53:57;18.30;1.00
15450;DHT22;7826;49.784;9.934;2022-09-23T15:56:24;18.30;1.00
15450;DHT22;7826;49.784;9.934;2022-09-23T15:58:52;18.20;1.00
15450;DHT22;7826;49.784;9.934;2022-09-23T16:01:27;18.10;1.00
15450;DHT22;7826;49.784;9.934;2022-09-23T16:03:54;18.20;1.00
15450;DHT22;7826;49.784;9.934;2022-09-23T16:06:21;18.10;1.00
15450;DHT22;7826;49.784;9.934;2022-09-23T16:08:49;18.00;1.00
15450;DHT22;7826;49.784;9.934;2022-09-23T16:11:19;18.00;1.00
15450;DHT22;7826;49.784;9.934;2022-09-23T16:13:45;17.90;1.00
15450;DHT22;7826;49.784;9.934;2022-09-23T16:16:12;17.80;1.00
15450;DHT22;7826;49.784;9.934;2022-09-23T16:18:39;17.80;1.00
15450;DHT22;7826;49.784;9.934;2022-09-23T16:21:10;17.70;1.00
15450;DHT22;7826;49.784;9.934;2022-09-23T16:23:41;17.70;1.00
15450;DHT22;7826;49.784;9.934;2022-09-23T16:26:19;17.70;1.00
15450;DHT22;7826;49.784;9.934;2022-09-23T16:28:48;17.50;1.00
15450;DHT22;7826;49.784;9.934;2022-09-23T16:31:15;17.50;1.00
15450;DHT22;7826;49.784;9.934;2022-09-23T16:33:42;17.50;1.00
15450;DHT22;7826;49.784;9.934;2022-09-23T16:36:33;17.40;1.00
15450;DHT22;7826;49.784;9.934;2022-09-23T16:39:02;17.30;1.00
15450;DHT22;7826;49.784;9.934;2022-09-23T16:41:29;17.20;1.00
15450;DHT22;7826;49.784;9.934;2022-09-23T16:44:01;17.10;1.00
15450;DHT22;7826;49.784;9.934;2022-09-23T16:46:29;17.00;1.00
15450;DHT22;7826;49.784;9.934;2022-09-23T16:48:57;16.90;1.00
15450;DHT22;7826;49.784;9.934;2022-09-23T16:51:29;16.80;1.00
15450;DHT22;7826;49.784;9.934;2022-09-23T16:53:57;16.60;1.00
15450;DHT22;7826;49.784;9.934;2022-09-23T16:56:29;16.50;1.00
15450;DHT22;7826;49.784;9.934;2022-09-23T16:59:01;16.40;1.00
15450;DHT22;7826;49.784;9.934;2022-09-23T17:01:28;16.20;1.00
15450;DHT22;7826;49.784;9.934;2022-09-23T17:04:15;16.10;1.00
15450;DHT22;7826;49.784;9.934;2022-09-23T17:06:47;16.00;1.00
15450;DHT22;7826;49.784;9.934;2022-09-23T17:09:16;15.90;1.00
15450;DHT22;7826;49.784;9.934;2022-09-23T17:11:44;15.80;1.00
15450;DHT22;7826;49.784;9.934;2022-09-23T17:14:14;15.60;1.00
15450;DHT22;7826;49.784;9.934;2022-09-23T17:16:41;15.50;1.00
15450;DHT22;7826;49.784;9.934;2022-09-23T17:19:09;15.40;1.00
15450;DHT22;7826;49.784;9.934;2022-09-23T17:21:36;15.30;1.00
15450;DHT22;7826;49.784;9.934;2022-09-23T17:24:03;15.20;1.00
15450;DHT22;7826;49.784;9.934;2022-09-23T17:26:30;15.10;1.00
15450;DHT22;7826;49.784;9.934;2022-09-23T17:28:56;15.10;1.00
15450;DHT22;7826;49.784;9.934;2022-09-23T17:31:24;14.90;1.00
15450;DHT22;7826;49.784;9.934;2022-09-23T17:33:51;14.90;1.00
15450;DHT22;7826;49.784;9.934;2022-09-23T17:36:19;14.80;1.00
15450;DHT22;7826;49.784;9.934;2022-09-23T17:38:46;14.70;1.00
15450;DHT22;7826;49.784;9.934;2022-09-23T17:41:14;14.60;1.00
15450;DHT22;7826;49.784;9.934;2022-09-23T17:43:40;14.50;10.00
15450;DHT22;7826;49.784;9.934;2022-09-23T17:46:09;14.40;12.00
15450;DHT22;7826;49.784;9.934;2022-09-23T17:48:39;14.30;13.90
15450;DHT22;7826;49.784;9.934;2022-09-23T17:51:15;14.20;20.90
15450;DHT22;7826;49.784;9.934;2022-09-23T17:53:45;14.10;13.10
15450;DHT22;7826;49.784;9.934;2022-09-23T17:56:21;14.10;18.40
15450;DHT22;7826;49.784;9.934;2022-09-23T17:58:48;14.00;25.10
15450;DHT22;7826;49.784;9.934;2022-09-23T18:01:32;13.90;32.70
15450;DHT22;7826;49.784;9.934;2022-09-23T18:04:01;13.80;39.10
15450;DHT22;7826;49.784;9.934;2022-09-23T18:06:33;13.70;50.20
15450;DHT22;7826;49.784;9.934;2022-09-23T18:09:05;13.70;57.30
15450;DHT22;7826;49.784;9.934;2022-09-23T18:11:34;13.60;66.30
15450;DHT22;7826;49.784;9.934;2022-09-23T18:14:06;13.60;82.80
15450;DHT22;7826;49.784;9.934;2022-09-23T18:16:35;13.50;94.90
15450;DHT22;7826;49.784;9.934;2022-09-23T18:19:03;13.50;99.20
15450;DHT22;7826;49.784;9.934;2022-09-23T18:21:36;13.40;99.90
15450;DHT22;7826;49.784;9.934;2022-09-23T18:24:03;13.40;99.90
15450;DHT22;7826;49.784;9.934;2022-09-23T18:26:29;13.30;99.90
15450;DHT22;7826;49.784;9.934;2022-09-23T18:28:57;13.30;99.90
15450;DHT22;7826;49.784;9.934;2022-09-23T18:31:30;13.20;99.90
15450;DHT22;7826;49.784;9.934;2022-09-23T18:34:02;13.20;99.90
15450;DHT22;7826;49.784;9.934;2022-09-23T18:36:29;13.20;99.90
15450;DHT22;7826;49.784;9.934;2022-09-23T18:38:55;13.50;99.90
15450;DHT22;7826;49.784;9.934;2022-09-23T18:41:22;13.20;99.90
15450;DHT22;7826;49.784;9.934;2022-09-23T18:43:48;13.20;99.90
15450;DHT22;7826;49.784;9.934;2022-09-23T18:46:24;13.20;99.90
15450;DHT22;7826;49.784;9.934;2022-09-23T18:48:54;13.20;99.90
15450;DHT22;7826;49.784;9.934;2022-09-23T18:51:56;13.10;99.90
15450;DHT22;7826;49.784;9.934;2022-09-23T18:54:23;13.10;99.90
15450;DHT22;7826;49.784;9.934;2022-09-23T18:56:50;13.00;99.90
15450;DHT22;7826;49.784;9.934;2022-09-23T18:59:19;13.00;99.90
15450;DHT22;7826;49.784;9.934;2022-09-23T19:01:47;12.90;99.90
15450;DHT22;7826;49.784;9.934;2022-09-23T19:04:18;12.90;99.90
15450;DHT22;7826;49.784;9.934;2022-09-23T19:06:46;12.90;99.90
15450;DHT22;7826;49.784;9.934;2022-09-23T19:09:13;12.80;99.90
15450;DHT22;7826;49.784;9.934;2022-09-23T19:11:40;12.80;99.90
15450;DHT22;7826;49.784;9.934;2022-09-23T19:14:08;12.70;99.90